Time;durP1;ratioP1;P1;durP2;ratioP2;P2;SDS_P1;SDS_P2;PMS_P1;PMS_P2;Temp;Humidity;BMP_temperature;BMP_pressure;BME280_temperature;BME280_humidity;BME280_pressure;Samples;Min_cycle;Max_cycle;Signal;HPM_P1;HPM_P2
2022/02/16 00:00:06;;;;;;;;;1.00;1.00;;;;;10.91;84.16;100778.44;5054130;28;46067;-75
2022/02/16 00:02:31;;;;;;;;;2.00;0.75;;;;;10.88;84.22;100763.69;5037144;28;46479;-76
2022/02/16 00:04:57;;;;;;;;;1.00;1.00;;;;;10.90;84.15;100763.59;5055009;28;45584;-76
2022/02/16 00:07:22;;;;;;;;;0.00;0.00;;;;;10.90;84.38;100760.97;5053906;28;45710;-76
2022/02/16 00:09:47;;;;;;;;;3.00;2.00;;;;;10.90;84.14;100756.56;5053571;28;53852;-76
2022/02/16 00:12:13;;;;;;;;;1.00;0.00;;;;;10.91;84.41;100755.69;5053966;28;45419;-76
2022/02/16 00:14:38;;;;;;;;;1.50;0.75;;;;;10.92;84.21;100741.59;5054406;28;45405;-76
2022/02/16 00:17:04;;;;;;;;;1.00;1.00;;;;;10.91;84.46;100731.13;5054287;28;45651;-76
2022/02/16 00:19:29;;;;;;;;;1.00;1.00;;;;;10.93;84.22;100731.94;5054741;28;45935;-76
2022/02/16 00:21:54;;;;;;;;;1.75;0.75;;;;;10.92;84.39;100723.19;5057173;28;45439;-76
2022/02/16 00:24:20;;;;;;;;;1.00;1.00;;;;;10.92;84.45;100719.72;5057407;28;45399;-76
2022/02/16 00:26:45;;;;;;;;;0.75;0.75;;;;;10.92;84.29;100720.56;5057369;28;45457;-76
2022/02/16 00:29:11;;;;;;;;;0.75;0.75;;;;;10.90;84.44;100711.88;5058055;28;45590;-76
2022/02/16 00:31:38;;;;;;;;;2.00;1.00;;;;;10.89;84.33;100723.31;5057015;28;45289;-76
2022/02/16 00:34:04;;;;;;;;;0.50;0.50;;;;;10.86;84.59;100706.84;5057587;28;45379;-76
2022/02/16 00:36:29;;;;;;;;;3.00;1.75;;;;;10.86;84.43;100705.06;5057236;28;45545;-76
2022/02/16 00:38:55;;;;;;;;;1.25;1.00;;;;;10.83;84.57;100697.31;5057144;28;45313;-76
2022/02/16 00:41:20;;;;;;;;;1.00;1.00;;;;;10.86;84.40;100693.69;5057167;28;45316;-76
2022/02/16 00:43:45;;;;;;;;;1.00;1.00;;;;;10.84;84.81;100699.00;5058056;28;45324;-76
2022/02/16 00:46:11;;;;;;;;;1.00;1.00;;;;;10.82;84.54;100686.88;5056847;28;45332;-76
2022/02/16 00:48:36;;;;;;;;;0.75;0.75;;;;;10.88;84.46;100689.22;5056837;28;45978;-76
2022/02/16 00:51:01;;;;;;;;;0.00;0.00;;;;;10.89;84.88;100693.53;5037181;28;45751;-76
2022/02/16 00:53:27;;;;;;;;;0.00;0.00;;;;;10.88;84.85;100692.69;5057279;28;45584;-76
2022/02/16 00:55:52;;;;;;;;;0.00;0.00;;;;;10.86;85.71;100691.06;5058088;28;45396;-76
2022/02/16 00:58:17;;;;;;;;;2.00;0.00;;;;;10.81;85.70;100678.13;5056497;28;46217;-76
2022/02/16 01:00:43;;;;;;;;;1.00;1.00;;;;;10.80;86.34;100684.28;5056565;28;45401;-76
2022/02/16 01:03:08;;;;;;;;;1.00;1.00;;;;;10.78;86.76;100680.03;5056969;28;45319;-76
2022/02/16 01:05:33;;;;;;;;;0.00;0.00;;;;;10.77;86.80;100666.03;5056834;28;47056;-76
2022/02/16 01:07:59;;;;;;;;;1.50;0.00;;;;;10.77;86.72;100662.56;5057113;28;47116;-76
2022/02/16 01:10:24;;;;;;;;;1.00;1.00;;;;;10.76;86.19;100658.22;5056478;28;45501;-74
2022/02/16 01:12:50;;;;;;;;;0.75;0.75;;;;;10.78;86.49;100664.25;5056520;28;45597;-74
2022/02/16 01:15:16;;;;;;;;;1.00;1.00;;;;;10.79;86.25;100655.44;5056369;28;45508;-74
2022/02/16 01:17:42;;;;;;;;;1.00;1.00;;;;;10.77;86.52;100650.25;5056632;28;47469;-74
2022/02/16 01:20:09;;;;;;;;;0.00;0.00;;;;;10.77;86.56;100645.00;5057180;28;45352;-74
2022/02/16 01:22:34;;;;;;;;;0.00;0.00;;;;;10.77;86.25;100637.13;5056165;28;45531;-73
2022/02/16 01:25:00;;;;;;;;;1.00;0.25;;;;;10.76;86.35;100635.44;5056411;28;45501;-74
2022/02/16 01:27:25;;;;;;;;;1.25;0.00;;;;;10.75;86.38;100630.22;5055901;28;46228;-74
2022/02/16 01:29:50;;;;;;;;;0.50;0.50;;;;;10.74;86.45;100621.47;5055584;28;45489;-76
2022/02/16 01:32:16;;;;;;;;;0.00;0.00;;;;;10.70;86.83;100623.41;5056989;28;45345;-76
2022/02/16 01:34:42;;;;;;;;;0.00;0.00;;;;;10.65;87.01;100628.03;5056690;28;45294;-76
2022/02/16 01:37:08;;;;;;;;;2.00;0.00;;;;;10.60;88.01;100630.00;5055893;28;46189;-76
2022/02/16 01:39:36;;;;;;;;;0.00;0.00;;;;;10.53;87.70;100612.78;5056148;28;45418;-76
2022/02/16 01:42:03;;;;;;;;;1.00;0.00;;;;;10.53;87.68;100604.06;5056411;28;45706;-76
2022/02/16 01:44:30;;;;;;;;;1.00;1.00;;;;;10.50;87.86;100605.06;5056405;28;45312;-76
2022/02/16 01:47:01;;;;;;;;;1.00;0.75;;;;;10.49;88.10;100582.31;5056646;28;46011;-76
2022/02/16 01:49:27;;;;;;;;;0.50;0.50;;;;;10.50;87.97;100598.97;5055692;28;45785;-76
2022/02/16 01:51:53;;;;;;;;;0.00;0.00;;;;;10.49;88.33;100602.47;5055519;28;45379;-76
2022/02/16 01:54:18;;;;;;;;;0.00;0.00;;;;;10.48;88.30;100579.75;5056154;28;45395;-76
2022/02/16 01:56:48;;;;;;;;;1.00;0.00;;;;;10.52;88.42;100573.44;5055558;28;45399;-77
2022/02/16 01:59:19;;;;;;;;;0.00;0.00;;;;;10.53;88.14;100583.88;5051255;28;45386;-76
2022/02/16 02:01:45;;;;;;;;;0.75;0.75;;;;;10.53;88.47;100589.13;5055716;28;45361;-76
2022/02/16 02:04:10;;;;;;;;;0.75;0.00;;;;;10.55;88.05;100570.69;5055822;28;45301;-76
2022/02/16 02:06:36;;;;;;;;;1.00;0.00;;;;;10.58;88.54;100575.78;5055664;28;46046;-76
2022/02/16 02:09:02;;;;;;;;;0.00;0.00;;;;;10.59;88.17;100553.84;5055716;28;45275;-76
2022/02/16 02:11:27;;;;;;;;;0.75;0.00;;;;;10.59;88.43;100556.47;5056389;28;45517;-76
2022/02/16 02:13:56;;;;;;;;;0.00;0.00;;;;;10.62;88.65;100558.97;5056062;28;45776;-76
2022/02/16 02:16:21;;;;;;;;;0.00;0.00;;;;;10.62;88.34;100557.19;5054968;28;46318;-76
2022/02/16 02:18:47;;;;;;;;;0.00;0.00;;;;;10.60;88.73;100551.16;5055913;28;45387;-76
2022/02/16 02:21:12;;;;;;;;;0.00;0.00;;;;;10.63;88.41;100543.13;5054916;28;45407;-76
2022/02/16 02:23:37;;;;;;;;;0.00;0.00;;;;;10.64;88.82;100544.81;5055389;28;45257;-76
2022/02/16 02:26:03;;;;;;;;;1.00;1.00;;;;;10.63;88.67;100537.88;5056181;28;45461;-76
2022/02/16 02:28:29;;;;;;;;;0.25;0.00;;;;;10.66;88.72;100526.38;5054997;28;45364;-76
2022/02/16 02:30:55;;;;;;;;;0.00;0.00;;;;;10.66;88.50;100532.47;5055438;28;45848;-76
2022/02/16 02:33:21;;;;;;;;;0.50;0.00;;;;;10.67;88.74;100530.72;5055432;28;45410;-77
2022/02/16 02:35:47;;;;;;;;;0.00;0.00;;;;;10.67;89.03;100528.94;5055330;28;45686;-76
2022/02/16 02:38:12;;;;;;;;;0.00;0.00;;;;;10.65;89.21;100522.91;5055841;28;45350;-76
2022/02/16 02:40:37;;;;;;;;;0.00;0.00;;;;;10.63;90.33;100516.84;5055054;28;45414;-76
2022/02/16 02:43:03;;;;;;;;;0.00;0.00;;;;;10.64;89.57;100510.66;5054116;28;45434;-76
2022/02/16 02:45:28;;;;;;;;;0.00;0.00;;;;;10.68;89.90;100506.13;5054859;28;46134;-76
2022/02/16 02:47:54;;;;;;;;;1.00;1.00;;;;;10.67;90.46;100494.75;5054887;28;45526;-76
2022/02/16 02:50:19;;;;;;;;;0.25;0.25;;;;;10.68;90.08;100490.34;5055808;28;45542;-76
2022/02/16 02:52:44;;;;;;;;;0.75;0.75;;;;;10.66;90.37;100485.19;5055673;28;45588;-76
2022/02/16 02:55:12;;;;;;;;;0.75;0.00;;;;;10.63;91.22;100481.84;5041270;28;47209;-76
2022/02/16 02:57:38;;;;;;;;;0.00;0.00;;;;;10.61;91.01;100489.81;5054757;28;45740;-77
2022/02/16 03:00:05;;;;;;;;;1.50;0.00;;;;;10.61;90.75;100471.41;5055320;28;45378;-76
2022/02/16 03:02:31;;;;;;;;;0.00;0.00;;;;;10.61;90.47;100474.03;5055055;28;49568;-76
2022/02/16 03:04:56;;;;;;;;;0.00;0.00;;;;;10.62;90.46;100462.59;5055530;28;45391;-76
2022/02/16 03:07:21;;;;;;;;;0.00;0.00;;;;;10.63;90.51;100466.91;5054571;28;45252;-76
2022/02/16 03:09:47;;;;;;;;;0.00;0.00;;;;;10.63;90.43;100453.78;5054763;28;47896;-76
2022/02/16 03:12:12;;;;;;;;;0.00;0.00;;;;;10.69;90.34;100442.13;5054227;28;45284;-76
2022/02/16 03:14:37;;;;;;;;;1.25;0.00;;;;;10.69;90.34;100431.59;5054027;28;58915;-76
2022/02/16 03:17:03;;;;;;;;;1.00;1.00;;;;;10.74;90.32;100439.28;5056512;28;45332;-76
2022/02/16 03:19:28;;;;;;;;;0.00;0.00;;;;;10.77;90.19;100433.88;5058452;28;45592;-76
2022/02/16 03:21:54;;;;;;;;;1.00;0.00;;;;;10.79;90.31;100427.59;5054787;28;45579;-76
2022/02/16 03:24:19;;;;;;;;;0.00;0.00;;;;;10.78;91.46;100415.41;5054406;28;46107;-77
2022/02/16 03:26:45;;;;;;;;;0.50;0.50;;;;;10.79;91.98;100411.84;5053948;28;52879;-76
2022/02/16 03:29:10;;;;;;;;;4.00;1.00;;;;;10.77;92.23;100412.84;5055759;28;45403;-76
2022/02/16 03:31:36;;;;;;;;;0.50;0.00;;;;;10.77;91.93;100420.72;5054381;28;45508;-76
2022/02/16 03:34:02;;;;;;;;;0.00;0.00;;;;;10.78;91.44;100422.44;5054490;28;46520;-76
2022/02/16 03:36:28;;;;;;;;;1.00;0.00;;;;;10.81;91.45;100419.66;5039326;28;45458;-76
2022/02/16 03:38:53;;;;;;;;;1.25;1.00;;;;;10.81;91.54;100410.00;5054578;28;45416;-76
2022/02/16 03:41:19;;;;;;;;;0.25;0.00;;;;;10.84;91.47;100406.34;5052337;28;45481;-76
2022/02/16 03:43:45;;;;;;;;;0.75;0.75;;;;;10.84;91.46;100404.56;5041015;28;46034;-76
2022/02/16 03:46:10;;;;;;;;;0.75;0.75;;;;;10.87;91.15;100406.22;5054338;28;45445;-76
2022/02/16 03:48:36;;;;;;;;;0.25;0.25;;;;;10.90;91.13;100408.69;5040215;28;45406;-77
2022/02/16 03:51:02;;;;;;;;;0.00;0.00;;;;;10.88;90.92;100397.41;5054594;28;45441;-77
2022/02/16 03:53:27;;;;;;;;;0.00;0.00;;;;;10.91;91.16;100390.22;5055277;28;45438;-77
2022/02/16 03:55:52;;;;;;;;;3.00;0.00;;;;;10.93;92.99;100395.41;5058263;28;52603;-75
2022/02/16 03:58:18;;;;;;;;;0.75;0.75;;;;;10.94;92.88;100391.81;5057605;28;45458;-76
2022/02/16 04:00:43;;;;;;;;;0.75;0.00;;;;;10.94;92.74;100379.53;5057833;28;45536;-77
2022/02/16 04:03:09;;;;;;;;;1.25;0.00;;;;;10.95;92.13;100383.00;5057678;28;46147;-76
2022/02/16 04:05:35;;;;;;;;;0.00;0.00;;;;;10.95;93.23;100388.25;5057845;28;45626;-76
2022/02/16 04:08:01;;;;;;;;;0.00;0.00;;;;;10.95;93.45;100389.13;5058585;28;45442;-76
2022/02/16 04:10:26;;;;;;;;;1.00;0.00;;;;;10.97;94.45;100391.69;5057385;28;45457;-77
2022/02/16 04:12:51;;;;;;;;;0.00;0.00;;;;;10.96;95.32;100392.59;5056649;28;46012;-76
2022/02/16 04:15:17;;;;;;;;;1.00;1.00;;;;;10.95;93.98;100388.25;5057483;28;45536;-76
2022/02/16 04:17:42;;;;;;;;;0.00;0.00;;;;;10.94;93.78;100378.69;5058137;28;45266;-76
2022/02/16 04:20:09;;;;;;;;;1.00;0.00;;;;;10.94;93.91;100373.44;5053984;28;45348;-76
2022/02/16 04:22:46;;;;;;;;;1.25;0.00;;;;;10.96;93.89;100382.06;5057579;28;46458;-76
2022/02/16 04:25:13;;;;;;;;;0.00;0.00;;;;;10.96;93.51;100361.91;5056870;28;45455;-76
2022/02/16 04:27:39;;;;;;;;;0.00;0.00;;;;;10.98;93.63;100352.16;5057145;28;45477;-76
2022/02/16 04:30:06;;;;;;;;;0.00;0.00;;;;;11.01;93.49;100368.69;5057602;28;45356;-76
2022/02/16 04:32:31;;;;;;;;;0.00;0.00;;;;;11.04;93.41;100373.81;5057684;28;45418;-76
2022/02/16 04:34:57;;;;;;;;;1.00;0.00;;;;;11.05;93.07;100371.09;5057870;28;45463;-76
2022/02/16 04:37:22;;;;;;;;;0.00;0.00;;;;;11.09;93.08;100377.06;5056513;28;45532;-76
2022/02/16 04:39:48;;;;;;;;;0.00;0.00;;;;;11.10;94.21;100379.59;5056708;28;45850;-76
2022/02/16 04:42:13;;;;;;;;;0.00;0.00;;;;;11.09;93.32;100366.53;5057058;28;45717;-76
2022/02/16 04:44:38;;;;;;;;;0.00;0.00;;;;;11.14;92.74;100365.38;5057107;28;45345;-77
2022/02/16 04:47:04;;;;;;;;;0.00;0.00;;;;;11.16;92.58;100358.25;5044703;28;45394;-76
2022/02/16 04:49:30;;;;;;;;;0.75;0.00;;;;;11.17;92.31;100354.72;5057191;28;45590;-77
2022/02/16 04:51:55;;;;;;;;;0.00;0.00;;;;;11.22;92.36;100357.09;5056476;28;46303;-76
2022/02/16 04:54:20;;;;;;;;;0.75;0.75;;;;;11.26;92.76;100347.25;5056915;28;45374;-77
2022/02/16 04:56:46;;;;;;;;;0.75;0.00;;;;;11.27;92.25;100335.81;5056699;28;47411;-76
2022/02/16 04:59:11;;;;;;;;;0.00;0.00;;;;;11.30;92.21;100346.19;5058185;28;45338;-76
2022/02/16 05:01:37;;;;;;;;;1.25;0.00;;;;;11.33;92.22;100356.53;5056703;28;45399;-77
2022/02/16 05:04:03;;;;;;;;;0.00;0.00;;;;;11.35;92.43;100349.41;5056529;28;45533;-77
2022/02/16 05:06:29;;;;;;;;;0.00;0.00;;;;;11.36;91.93;100344.06;5055696;28;45370;-76
2022/02/16 05:08:54;;;;;;;;;0.75;0.00;;;;;11.42;91.61;100354.28;5056342;28;45830;-76
2022/02/16 05:11:20;;;;;;;;;0.00;0.00;;;;;11.45;91.82;100342.75;5056296;28;46327;-77
2022/02/16 05:13:45;;;;;;;;;0.75;0.00;;;;;11.49;91.54;100352.19;5056928;28;45480;-76
2022/02/16 05:16:11;;;;;;;;;1.00;0.00;;;;;11.51;91.69;100331.91;5056067;28;45552;-77
2022/02/16 05:18:36;;;;;;;;;0.00;0.00;;;;;11.55;91.96;100348.38;5056586;28;45533;-77
2022/02/16 05:21:02;;;;;;;;;1.00;0.00;;;;;11.58;91.97;100338.50;5056417;28;46210;-77
2022/02/16 05:23:28;;;;;;;;;1.50;0.00;;;;;11.60;91.94;100331.41;5056438;28;45438;-77
2022/02/16 05:25:54;;;;;;;;;0.00;0.00;;;;;11.62;92.22;100349.75;5057303;28;45328;-78
2022/02/16 05:28:20;;;;;;;;;0.00;0.00;;;;;11.65;92.14;100352.22;5056300;28;45321;-77
2022/02/16 05:30:46;;;;;;;;;0.00;0.00;;;;;11.67;91.99;100343.28;5056482;28;46517;-76
2022/02/16 05:33:11;;;;;;;;;0.25;0.00;;;;;11.71;92.01;100354.53;5056458;28;45461;-78
2022/02/16 05:35:36;;;;;;;;;0.25;0.00;;;;;11.72;92.29;100350.94;5056131;28;45889;-78
2022/02/16 05:38:02;;;;;;;;;0.00;0.00;;;;;11.76;92.18;100355.97;5056553;28;45236;-78
2022/02/16 05:40:27;;;;;;;;;0.00;0.00;;;;;11.77;91.79;100344.50;5056026;28;45351;-78
2022/02/16 05:42:53;;;;;;;;;0.00;0.00;;;;;11.81;92.20;100345.19;5056044;28;45482;-77
2022/02/16 05:45:19;;;;;;;;;0.00;0.00;;;;;11.85;92.16;100352.03;5053665;28;45335;-77
2022/02/16 05:47:45;;;;;;;;;0.00;0.00;;;;;11.86;92.22;100355.50;5056362;28;45519;-78
2022/02/16 05:50:10;;;;;;;;;2.00;0.75;;;;;11.87;92.07;100346.69;5056399;28;45854;-78
2022/02/16 05:52:36;;;;;;;;;0.00;0.00;;;;;11.89;92.20;100357.97;5055696;28;45901;-78
2022/02/16 05:55:02;;;;;;;;;0.00;0.00;;;;;11.90;92.36;100357.03;5055977;28;45365;-78
2022/02/16 05:57:28;;;;;;;;;0.75;0.25;;;;;11.87;92.44;100344.88;5056027;28;45348;-77
2022/02/16 05:59:53;;;;;;;;;0.00;0.00;;;;;11.92;92.39;100355.19;5055833;28;47156;-78
2022/02/16 06:02:18;;;;;;;;;0.00;0.00;;;;;11.94;92.81;100356.78;5055521;28;45371;-78
2022/02/16 06:04:44;;;;;;;;;2.00;0.25;;;;;11.96;92.48;100364.63;5055334;28;45382;-78
2022/02/16 06:07:09;;;;;;;;;0.00;0.00;;;;;11.96;92.77;100349.66;5055866;28;45427;-78
2022/02/16 06:09:34;;;;;;;;;0.25;0.25;;;;;12.00;94.35;100355.59;5041270;28;46406;-75
2022/02/16 06:12:00;;;;;;;;;0.00;0.00;;;;;12.01;93.92;100359.94;5056112;28;45447;-76
2022/02/16 06:14:25;;;;;;;;;0.25;0.00;;;;;12.04;92.85;100351.84;5056073;28;45320;-75
2022/02/16 06:16:50;;;;;;;;;0.00;0.00;;;;;12.07;92.85;100362.25;5054919;28;45498;-76
2022/02/16 06:19:16;;;;;;;;;0.00;0.00;;;;;12.11;92.63;100379.59;5055553;28;46192;-75
2022/02/16 06:21:41;;;;;;;;;0.00;0.00;;;;;12.13;92.43;100375.06;5055036;28;53274;-78
2022/02/16 06:24:07;;;;;;;;;0.00;0.00;;;;;12.20;92.45;100365.03;5055551;28;45455;-78
2022/02/16 06:26:32;;;;;;;;;0.00;0.00;;;;;12.24;92.38;100361.28;5055880;28;45517;-77
2022/02/16 06:28:58;;;;;;;;;0.00;0.00;;;;;12.26;92.11;100360.25;5056396;28;46807;-78
2022/02/16 06:31:23;;;;;;;;;0.00;0.00;;;;;12.28;92.13;100361.03;5055256;28;45584;-78
2022/02/16 06:33:48;;;;;;;;;0.00;0.00;;;;;12.31;91.92;100362.63;5036131;28;45406;-77
2022/02/16 06:36:14;;;;;;;;;0.50;0.00;;;;;12.32;91.85;100372.28;5055312;28;45480;-78
2022/02/16 06:38:40;;;;;;;;;0.00;0.00;;;;;12.35;92.04;100369.44;5055280;28;46138;-77
2022/02/16 06:41:05;;;;;;;;;0.00;0.00;;;;;12.37;91.96;100356.19;5054676;28;45506;-78
2022/02/16 06:43:30;;;;;;;;;0.00;0.00;;;;;12.40;91.87;100372.66;5054944;28;45390;-71
2022/02/16 06:45:56;;;;;;;;;0.00;0.00;;;;;12.41;91.81;100374.38;5054517;28;45932;-76
2022/02/16 06:48:21;;;;;;;;;0.00;0.00;;;;;12.45;91.71;100381.16;5054014;28;47037;-76
2022/02/16 06:50:47;;;;;;;;;0.00;0.00;;;;;12.51;91.87;100379.97;5055181;28;45513;-77
2022/02/16 06:53:12;;;;;;;;;0.00;0.00;;;;;12.51;91.67;100365.00;5055312;28;45451;-76
2022/02/16 06:55:38;;;;;;;;;2.00;0.75;;;;;12.52;91.51;100369.34;5054343;28;45648;-76
2022/02/16 06:58:03;;;;;;;;;0.00;0.00;;;;;12.55;92.00;100376.22;5054460;28;46792;-76
2022/02/16 07:00:28;;;;;;;;;3.00;1.50;;;;;12.57;91.98;100403.34;5054674;28;45483;-76
2022/02/16 07:02:54;;;;;;;;;14.00;11.50;;;;;12.59;91.91;100406.75;5053570;28;45863;-76
2022/02/16 07:05:19;;;;;;;;;4.00;3.00;;;;;12.64;91.80;100404.72;5055295;28;45457;-76
2022/02/16 07:07:44;;;;;;;;;0.00;0.00;;;;;12.66;91.52;100408.09;5054651;28;45990;-76
2022/02/16 07:10:10;;;;;;;;;0.00;0.00;;;;;12.68;91.35;100405.38;5054089;28;45509;-76
2022/02/16 07:12:36;;;;;;;;;0.00;0.00;;;;;12.70;91.54;100412.28;5054265;28;45463;-76
2022/02/16 07:15:03;;;;;;;;;1.00;0.25;;;;;12.73;91.55;100405.97;5054597;28;45404;-76
2022/02/16 07:17:28;;;;;;;;;0.00;0.00;;;;;12.77;91.76;100410.13;5054096;28;46312;-76
2022/02/16 07:19:53;;;;;;;;;2.25;2.25;;;;;12.80;91.52;100394.16;5052983;28;45390;-76
2022/02/16 07:22:19;;;;;;;;;5.50;3.00;;;;;12.83;91.29;100409.78;5053863;28;45441;-76
2022/02/16 07:24:44;;;;;;;;;0.50;0.50;;;;;12.90;91.30;100405.00;5054190;28;45461;-76
2022/02/16 07:27:09;;;;;;;;;0.00;0.00;;;;;12.91;91.20;100399.66;5054172;28;47847;-76
2022/02/16 07:29:35;;;;;;;;;0.25;0.25;;;;;12.94;91.19;100407.34;5053344;28;48309;-78
2022/02/16 07:32:00;;;;;;;;;1.00;0.00;;;;;12.99;91.05;100393.91;5040497;28;45734;-77
2022/02/16 07:34:27;;;;;;;;;1.00;0.00;;;;;13.00;90.72;100385.94;5053018;28;45648;-75
2022/02/16 07:36:53;;;;;;;;;0.00;0.00;;;;;13.04;90.74;100384.78;5053744;28;45351;-78
2022/02/16 07:39:20;;;;;;;;;0.75;0.00;;;;;13.06;91.02;100380.28;5053889;28;45750;-77
2022/02/16 07:41:45;;;;;;;;;1.25;0.00;;;;;13.12;90.65;100378.22;5054121;28;45316;-77
2022/02/16 07:44:11;;;;;;;;;0.00;0.00;;;;;13.21;90.64;100382.97;5054628;28;45490;-77
2022/02/16 07:46:36;;;;;;;;;3.00;0.00;;;;;13.27;90.67;100387.91;5053541;28;46083;-76
2022/02/16 07:49:02;;;;;;;;;1.00;0.00;;;;;13.26;90.41;100384.41;5054433;28;45413;-77
2022/02/16 07:51:27;;;;;;;;;0.00;0.00;;;;;13.29;89.93;100389.50;5054591;28;45458;-77
2022/02/16 07:53:52;;;;;;;;;0.00;0.00;;;;;13.30;90.27;100401.75;5053882;28;45403;-78
2022/02/16 07:56:17;;;;;;;;;1.00;0.25;;;;;13.29;90.01;100397.41;5054206;28;61721;-77
2022/02/16 07:58:43;;;;;;;;;1.50;1.50;;;;;13.29;90.01;100401.84;5054628;28;45383;-78
2022/02/16 08:01:08;;;;;;;;;0.00;0.00;;;;;13.30;90.14;100409.66;5053289;28;45473;-78
2022/02/16 08:03:34;;;;;;;;;0.00;0.00;;;;;13.30;90.37;100412.31;5053570;28;45336;-77
2022/02/16 08:06:03;;;;;;;;;0.75;0.75;;;;;13.33;90.06;100408.66;5052852;28;45280;-77
2022/02/16 08:08:29;;;;;;;;;0.00;0.00;;;;;13.35;90.13;100403.25;5054181;28;45489;-77
2022/02/16 08:10:54;;;;;;;;;0.00;0.00;;;;;13.38;90.09;100405.75;5054139;28;46031;-78
2022/02/16 08:13:20;;;;;;;;;0.75;0.75;;;;;13.41;89.83;100402.91;5053540;28;45534;-78
2022/02/16 08:15:45;;;;;;;;;2.00;1.75;;;;;13.45;90.16;100394.69;5052179;28;46289;-77
2022/02/16 08:18:13;;;;;;;;;1.00;1.00;;;;;13.50;89.78;100399.72;5050691;28;45732;-77
2022/02/16 08:20:40;;;;;;;;;0.50;0.50;;;;;13.56;89.74;100394.06;5048117;28;45542;-78
2022/02/16 08:23:05;;;;;;;;;0.00;0.00;;;;;13.60;89.86;100406.13;5057471;28;45542;-77
2022/02/16 08:25:31;;;;;;;;;1.00;1.00;;;;;13.62;89.70;100414.78;5055648;28;46284;-77
2022/02/16 08:27:56;;;;;;;;;1.00;1.00;;;;;13.62;89.70;100419.22;5055199;28;45783;-77
2022/02/16 08:30:21;;;;;;;;;1.00;1.00;;;;;13.64;90.56;100426.13;5047791;28;45431;-75
2022/02/16 08:32:48;;;;;;;;;1.50;1.00;;;;;13.62;89.66;100432.44;5053231;28;45428;-77
2022/02/16 08:35:14;;;;;;;;;2.00;2.00;;;;;13.62;89.58;100433.28;5057290;28;47062;-77
2022/02/16 08:37:40;;;;;;;;;1.00;1.00;;;;;13.62;89.35;100435.91;5059934;28;46017;-77
2022/02/16 08:40:07;;;;;;;;;1.50;1.50;;;;;13.64;89.93;100430.56;5062940;28;45345;-76
2022/02/16 08:42:32;;;;;;;;;2.50;2.50;;;;;13.68;89.58;100424.16;5063335;28;45489;-76
2022/02/16 08:44:58;;;;;;;;;1.75;0.00;;;;;13.71;89.74;100414.25;5072726;28;46851;-75
2022/02/16 08:47:24;;;;;;;;;0.50;0.50;;;;;13.73;89.59;100415.03;5065752;28;45316;-75
2022/02/16 08:49:50;;;;;;;;;1.25;1.00;;;;;13.76;89.86;100416.59;5063016;28;45533;-75
2022/02/16 08:52:15;;;;;;;;;1.75;1.75;;;;;13.76;89.82;100416.59;5043416;28;48030;-76
2022/02/16 08:54:40;;;;;;;;;0.00;0.00;;;;;13.80;89.44;100421.63;5060418;28;45368;-76
2022/02/16 08:57:06;;;;;;;;;1.25;0.00;;;;;13.88;89.54;100438.78;5060149;28;45685;-76
2022/02/16 08:59:33;;;;;;;;;1.00;1.00;;;;;14.00;89.57;100444.16;5058307;28;45337;-76
2022/02/16 09:01:58;;;;;;;;;0.75;0.25;;;;;14.10;89.28;100431.25;5066009;28;45407;-75
2022/02/16 09:04:24;;;;;;;;;1.00;0.00;;;;;14.18;89.02;100436.03;5058581;28;45442;-76
2022/02/16 09:09:37;;;;;;;;;2.00;0.50;;;;;14.35;88.26;100441.97;5044771;28;45407;-77
2022/02/16 09:12:04;;;;;;;;;1.50;0.00;;;;;14.42;88.17;100438.94;5049521;28;45432;-76
2022/02/16 09:14:29;;;;;;;;;3.25;0.50;;;;;14.46;88.20;100433.34;5056098;28;45462;-76
2022/02/16 09:16:54;;;;;;;;;0.00;0.00;;;;;14.50;87.71;100447.25;5052410;28;45489;-76
2022/02/16 09:19:20;;;;;;;;;2.00;2.00;;;;;14.55;87.41;100443.34;5052072;28;45448;-76
2022/02/16 09:21:45;;;;;;;;;1.50;0.25;;;;;14.61;87.14;100442.09;5052044;28;45482;-76
2022/02/16 09:24:10;;;;;;;;;1.00;1.00;;;;;14.64;87.10;100443.72;5052827;28;46417;-76
2022/02/16 09:26:36;;;;;;;;;0.00;0.00;;;;;14.62;86.49;100449.13;5055595;28;45400;-76
2022/02/16 09:29:01;;;;;;;;;1.25;0.00;;;;;14.62;86.11;100457.06;5052326;28;45431;-76
2022/02/16 09:31:28;;;;;;;;;1.00;1.00;;;;;14.64;86.55;100449.84;5051766;28;45293;-76
2022/02/16 09:33:53;;;;;;;;;0.00;0.00;;;;;14.69;86.71;100455.69;5052116;28;45303;-76
2022/02/16 09:36:19;;;;;;;;;0.00;0.00;;;;;14.75;86.38;100455.28;5051506;28;45295;-76
2022/02/16 09:38:44;;;;;;;;;0.00;0.00;;;;;14.77;86.01;100468.41;5056286;28;45403;-76
2022/02/16 09:41:11;;;;;;;;;0.00;0.00;;;;;14.77;85.92;100463.13;5053149;28;45356;-76
2022/02/16 09:43:37;;;;;;;;;0.00;0.00;;;;;14.80;86.01;100468.22;5047927;28;45284;-76
2022/02/16 09:46:03;;;;;;;;;1.75;0.00;;;;;14.84;85.34;100464.44;5051359;28;45737;-76
2022/02/16 09:48:29;;;;;;;;;2.50;0.75;;;;;14.87;85.84;100464.22;5051931;28;45342;-76
2022/02/16 09:50:54;;;;;;;;;1.00;1.00;;;;;14.87;85.06;100462.44;5054365;28;45546;-76
2022/02/16 09:53:20;;;;;;;;;0.00;0.00;;;;;14.93;85.52;100458.56;5037466;28;46043;-76
2022/02/16 09:55:45;;;;;;;;;1.00;1.00;;;;;14.95;85.40;100459.28;5052292;28;45710;-76
2022/02/16 09:58:11;;;;;;;;;0.00;0.00;;;;;14.98;85.35;100455.59;5051830;28;45427;-76
2022/02/16 10:00:36;;;;;;;;;2.00;1.00;;;;;15.02;85.17;100454.44;5043353;28;45472;-76
2022/02/16 10:03:13;;;;;;;;;0.00;0.00;;;;;15.05;85.05;100457.75;5053353;28;46443;-76
2022/02/16 10:05:39;;;;;;;;;1.75;0.25;;;;;15.07;84.70;100455.00;5055760;28;45238;-76
2022/02/16 10:08:06;;;;;;;;;1.50;0.00;;;;;15.13;84.81;100460.72;5052075;28;45450;-76
2022/02/16 10:10:31;;;;;;;;;1.75;0.00;;;;;15.22;84.50;100469.84;5051340;28;45425;-76
2022/02/16 10:12:59;;;;;;;;;2.00;0.00;;;;;15.24;84.26;100460.00;5055716;28;46307;-76
2022/02/16 10:15:33;;;;;;;;;0.00;0.00;;;;;15.26;84.00;100459.91;5051486;28;45301;-76
2022/02/16 10:18:14;;;;;;;;;1.00;1.00;;;;;15.31;84.08;100471.91;5037883;28;45438;-76
2022/02/16 10:20:40;;;;;;;;;0.00;0.00;;;;;15.42;84.17;100465.03;5039451;28;45435;-76
2022/02/16 10:23:05;;;;;;;;;0.50;0.00;;;;;15.58;83.95;100455.09;5040814;28;46555;-76
2022/02/16 10:25:33;;;;;;;;;0.00;0.00;;;;;15.75;83.88;100468.06;5049858;28;45647;-76
2022/02/16 10:28:07;;;;;;;;;0.00;0.00;;;;;15.84;82.70;100464.78;5050949;28;45406;-76
2022/02/16 10:30:34;;;;;;;;;1.00;0.75;;;;;15.96;83.19;100465.72;5050991;28;50379;-76
2022/02/16 10:33:17;;;;;;;;;0.00;0.00;;;;;16.19;82.30;100464.13;5053124;28;46154;-76
2022/02/16 10:35:44;;;;;;;;;1.00;0.00;;;;;16.55;82.93;100470.38;5040008;28;45802;-76
2022/02/16 10:38:09;;;;;;;;;0.00;0.00;;;;;16.66;81.26;100476.66;5051848;28;45309;-76
2022/02/16 10:40:35;;;;;;;;;0.00;0.00;;;;;16.66;79.91;100470.50;5050742;28;45284;-76
2022/02/16 10:43:01;;;;;;;;;0.00;0.00;;;;;16.49;80.02;100473.50;5050435;28;48269;-76
2022/02/16 10:45:29;;;;;;;;;0.00;0.00;;;;;16.29;80.65;100477.59;5049511;28;45772;-76
2022/02/16 10:47:55;;;;;;;;;0.00;0.00;;;;;16.20;80.72;100464.97;5039563;28;45447;-76
2022/02/16 10:50:23;;;;;;;;;1.00;0.00;;;;;16.09;81.14;100466.56;5052837;28;45492;-76
2022/02/16 10:52:50;;;;;;;;;0.00;0.00;;;;;16.02;80.95;100475.03;5051486;28;46440;-76
2022/02/16 10:55:16;;;;;;;;;0.00;0.00;;;;;16.03;81.47;100474.13;5050154;28;45866;-76
2022/02/16 10:57:42;;;;;;;;;1.00;0.00;;;;;16.02;81.64;100483.00;5055585;28;45370;-76
2022/02/16 11:00:08;;;;;;;;;0.00;0.00;;;;;15.96;81.50;100499.34;5042588;28;45280;-76
2022/02/16 11:02:34;;;;;;;;;2.00;0.00;;;;;15.95;81.67;100502.94;5050725;28;46367;-76
2022/02/16 11:05:02;;;;;;;;;1.00;1.00;;;;;15.94;82.18;100496.78;5037657;28;45402;-76
2022/02/16 11:07:32;;;;;;;;;1.75;0.50;;;;;15.96;82.31;100501.97;5050300;28;45336;-76
2022/02/16 11:10:03;;;;;;;;;3.00;0.00;;;;;15.98;82.35;100498.28;5044110;28;45512;-76
2022/02/16 11:12:28;;;;;;;;;1.00;1.00;;;;;15.96;82.59;100504.63;5040579;28;45517;-76
2022/02/16 11:14:54;;;;;;;;;0.00;0.00;;;;;15.91;82.29;100519.03;5053271;28;45482;-76
2022/02/16 11:17:24;;;;;;;;;2.75;1.00;;;;;15.86;82.19;100510.56;5052175;28;45421;-76
2022/02/16 11:19:49;;;;;;;;;2.00;0.75;;;;;15.84;82.97;100506.34;5055367;28;45482;-76